createdAt,value
2018-05-21T00:01:13.556Z,14.60
2018-05-21T00:03:41.899Z,14.60
2018-05-21T00:06:10.236Z,14.60
2018-05-21T00:08:38.513Z,14.60
2018-05-21T00:11:06.788Z,14.50
2018-05-21T00:13:35.076Z,14.50
2018-05-21T00:16:04.126Z,14.40
2018-05-21T00:18:32.416Z,14.40
2018-05-21T00:21:01.519Z,14.40
2018-05-21T00:23:29.804Z,14.30
2018-05-21T00:25:58.077Z,14.40
2018-05-21T00:28:26.366Z,14.30
2018-05-21T00:30:55.479Z,14.30
2018-05-21T00:33:23.816Z,14.20
2018-05-21T00:35:52.123Z,14.20
2018-05-21T00:38:21.179Z,14.20
2018-05-21T00:40:49.439Z,14.10
2018-05-21T00:43:17.703Z,14.20
2018-05-21T00:45:46.030Z,14.10
2018-05-21T00:48:15.121Z,14.10
2018-05-21T00:50:44.171Z,14.10
2018-05-21T00:53:12.489Z,14.00
2018-05-21T00:55:40.797Z,14.00
2018-05-21T00:58:09.834Z,14.00
2018-05-21T01:00:38.137Z,13.90
2018-05-21T01:03:06.386Z,14.00
2018-05-21T01:05:34.672Z,13.90
2018-05-21T01:08:02.964Z,13.80
2018-05-21T01:10:31.241Z,13.80
2018-05-21T01:13:00.279Z,13.80
2018-05-21T01:15:28.544Z,13.70
2018-05-21T01:17:56.844Z,13.80
2018-05-21T01:20:25.108Z,13.70
2018-05-21T01:22:53.370Z,13.70
2018-05-21T01:25:21.699Z,13.70
2018-05-21T01:27:51.515Z,13.60
2018-05-21T01:30:19.772Z,13.60
2018-05-21T01:32:48.071Z,13.60
2018-05-21T01:35:17.146Z,13.60
2018-05-21T01:37:45.412Z,13.50
2018-05-21T01:40:13.687Z,13.60
2018-05-21T01:42:41.963Z,13.50
2018-05-21T01:45:10.256Z,13.50
2018-05-21T01:47:38.532Z,13.50
2018-05-21T01:50:06.787Z,13.50
2018-05-21T01:52:35.075Z,13.40
2018-05-21T01:55:03.355Z,13.40
2018-05-21T01:57:31.641Z,13.40
2018-05-21T01:59:59.907Z,13.30
2018-05-21T02:02:28.217Z,13.30
2018-05-21T02:04:56.576Z,13.20
2018-05-21T02:07:24.853Z,13.10
2018-05-21T02:09:53.131Z,13.10
2018-05-21T02:12:21.406Z,13.10
2018-05-21T02:14:49.668Z,13.00
2018-05-21T02:17:17.956Z,13.00
2018-05-21T02:19:46.850Z,13.00
2018-05-21T02:22:15.233Z,13.00
2018-05-21T02:24:43.512Z,12.90
2018-05-21T02:27:11.787Z,12.90
2018-05-21T02:29:40.067Z,12.90
2018-05-21T02:32:09.862Z,12.80
2018-05-21T02:34:38.194Z,12.70
2018-05-21T02:37:06.504Z,12.80
2018-05-21T02:39:34.756Z,12.70
2018-05-21T02:42:03.061Z,12.70
2018-05-21T02:44:31.318Z,12.60
2018-05-21T02:46:59.612Z,12.60
2018-05-21T02:49:27.883Z,12.50
2018-05-21T02:51:56.179Z,12.50
2018-05-21T02:54:24.444Z,12.40
2018-05-21T02:56:52.720Z,12.40
2018-05-21T02:59:21.032Z,12.30
2018-05-21T03:01:49.294Z,12.30
2018-05-21T03:04:17.583Z,12.20
2018-05-21T03:06:46.652Z,12.20
2018-05-21T03:09:14.983Z,12.10
2018-05-21T03:11:43.315Z,12.20
2018-05-21T03:14:11.617Z,12.20
2018-05-21T03:16:40.661Z,12.10
2018-05-21T03:19:08.953Z,12.00
2018-05-21T03:21:37.249Z,12.10
2018-05-21T03:24:06.320Z,12.00
2018-05-21T03:26:34.584Z,12.00
2018-05-21T03:29:02.895Z,12.00
2018-05-21T03:31:31.164Z,12.00
2018-05-21T03:33:59.422Z,12.00
2018-05-21T03:36:27.730Z,12.00
2018-05-21T03:38:55.986Z,12.00
2018-05-21T03:41:24.264Z,12.00
2018-05-21T03:43:52.539Z,12.00
2018-05-21T03:46:20.815Z,12.10
2018-05-21T03:48:49.143Z,12.10
2018-05-21T03:51:17.427Z,12.10
2018-05-21T03:53:45.716Z,12.20
2018-05-21T03:56:14.008Z,12.20
2018-05-21T03:58:54.127Z,12.30
2018-05-21T04:01:35.041Z,12.40
2018-05-21T04:04:03.351Z,12.40
2018-05-21T04:06:32.384Z,12.50
2018-05-21T04:09:00.671Z,12.40
2018-05-21T04:11:28.970Z,12.50
2018-05-21T04:13:57.228Z,12.50
2018-05-21T04:16:25.506Z,12.60
2018-05-21T04:18:53.900Z,12.60
2018-05-21T04:21:22.877Z,12.70
2018-05-21T04:23:51.147Z,12.70
2018-05-21T04:26:19.410Z,12.70
2018-05-21T04:28:47.679Z,12.80
2018-05-21T04:31:15.964Z,12.80
2018-05-21T04:33:44.275Z,12.80
2018-05-21T04:36:12.657Z,12.80
2018-05-21T04:38:40.920Z,12.80
2018-05-21T04:41:09.211Z,12.80
2018-05-21T04:43:37.495Z,12.80
2018-05-21T04:46:06.555Z,12.80
2018-05-21T04:48:34.831Z,12.80
2018-05-21T04:51:03.140Z,12.90
2018-05-21T04:53:32.192Z,12.90
2018-05-21T04:56:00.452Z,12.80
2018-05-21T04:58:28.723Z,12.90
2018-05-21T05:00:57.021Z,12.90
2018-05-21T05:03:25.340Z,13.00
2018-05-21T05:05:53.604Z,13.10
2018-05-21T05:08:22.661Z,13.20
2018-05-21T05:10:50.932Z,13.10
2018-05-21T05:13:19.204Z,13.30
2018-05-21T05:15:47.524Z,13.30
2018-05-21T05:18:15.784Z,13.40
2018-05-21T05:20:44.055Z,13.50
2018-05-21T05:23:12.349Z,13.60
2018-05-21T05:25:40.731Z,13.70
2018-05-21T05:28:09.032Z,13.70
2018-05-21T05:30:37.308Z,13.80
2018-05-21T05:33:05.668Z,13.90
2018-05-21T05:35:34.736Z,14.00
2018-05-21T05:38:03.026Z,14.00
2018-05-21T05:40:31.326Z,14.10
2018-05-21T05:42:59.620Z,14.20
2018-05-21T05:45:28.732Z,14.40
2018-05-21T05:47:57.113Z,14.30
2018-05-21T05:50:26.156Z,14.50
2018-05-21T05:52:54.451Z,14.40
2018-05-21T05:55:22.722Z,14.60
2018-05-21T05:57:51.058Z,14.70
2018-05-21T06:00:19.361Z,14.80
2018-05-21T06:02:47.639Z,14.90
2018-05-21T06:05:15.935Z,15.00
2018-05-21T06:07:44.212Z,15.20
2018-05-21T06:10:12.484Z,15.20
2018-05-21T06:12:41.564Z,15.40
2018-05-21T06:15:09.868Z,15.40
2018-05-21T06:17:38.907Z,15.60
2018-05-21T06:20:07.182Z,15.50
2018-05-21T06:22:35.477Z,15.70
2018-05-21T06:25:03.735Z,15.70
2018-05-21T06:27:32.017Z,15.80
2018-05-21T06:30:00.293Z,15.90
2018-05-21T06:32:28.593Z,16.00
2018-05-21T06:34:56.859Z,16.10
2018-05-21T06:37:25.176Z,16.10
2018-05-21T06:39:53.542Z,16.20
2018-05-21T06:42:21.819Z,16.30
2018-05-21T06:44:50.857Z,16.60
2018-05-21T06:47:19.150Z,16.50
2018-05-21T06:49:47.443Z,16.60
2018-05-21T06:52:15.718Z,16.70
2018-05-21T06:54:45.199Z,16.80
2018-05-21T06:57:13.492Z,17.00
2018-05-21T06:59:41.813Z,17.10
2018-05-21T07:02:10.027Z,17.10
2018-05-21T07:04:38.323Z,17.20
2018-05-21T07:07:06.588Z,17.30
2018-05-21T07:09:34.871Z,17.40
2018-05-21T07:12:03.175Z,17.50
2018-05-21T07:14:31.467Z,17.60
2018-05-21T07:17:00.515Z,17.80
2018-05-21T07:19:28.804Z,17.70
2018-05-21T07:21:57.083Z,17.80
2018-05-21T07:24:25.355Z,17.90
2018-05-21T07:26:53.647Z,18.00
2018-05-21T07:29:21.908Z,18.10
2018-05-21T07:31:50.169Z,18.20
2018-05-21T07:34:18.496Z,18.30
2018-05-21T07:36:47.552Z,18.40
2018-05-21T07:39:15.821Z,18.40
2018-05-21T07:41:44.083Z,18.50
2018-05-21T07:44:12.355Z,18.60
2018-05-21T07:46:40.616Z,18.70
2018-05-21T07:49:08.949Z,18.70
2018-05-21T07:51:37.268Z,18.80
2018-05-21T07:54:05.496Z,18.90
2018-05-21T07:56:33.779Z,19.10
2018-05-21T07:59:02.050Z,19.00
2018-05-21T08:01:30.444Z,19.10
2018-05-21T08:03:58.695Z,19.20
2018-05-21T08:06:27.008Z,19.20
2018-05-21T08:08:56.040Z,19.30
2018-05-21T08:11:24.304Z,19.20
2018-05-21T08:13:52.587Z,19.40
2018-05-21T08:16:20.879Z,19.40
2018-05-21T08:18:49.152Z,19.50
2018-05-21T08:21:17.449Z,19.60
2018-05-21T08:23:45.827Z,19.70
2018-05-21T08:26:14.109Z,19.70
2018-05-21T08:28:42.483Z,19.60
2018-05-21T08:31:10.760Z,19.60
2018-05-21T08:33:39.031Z,19.60
2018-05-21T08:36:07.327Z,19.60
2018-05-21T08:38:35.584Z,19.70
2018-05-21T08:41:04.995Z,20.00
2018-05-21T08:43:34.050Z,20.10
2018-05-21T08:46:02.368Z,20.00
2018-05-21T08:48:30.659Z,20.00
2018-05-21T08:50:59.700Z,20.10
2018-05-21T08:53:28.111Z,20.00
2018-05-21T08:55:56.493Z,20.10
2018-05-21T08:58:24.898Z,20.30
2018-05-21T09:00:53.930Z,20.50
2018-05-21T09:03:22.216Z,20.40
2018-05-21T09:05:50.492Z,20.50
2018-05-21T09:08:18.759Z,20.60
2018-05-21T09:10:47.027Z,20.60
2018-05-21T09:13:15.295Z,20.70
2018-05-21T09:15:44.328Z,20.70
2018-05-21T09:18:12.588Z,20.70
2018-05-21T09:20:40.879Z,20.80
2018-05-21T09:23:09.268Z,20.80
2018-05-21T09:25:37.610Z,20.80
2018-05-21T09:28:05.895Z,20.90
2018-05-21T09:30:34.174Z,21.00
2018-05-21T09:33:02.465Z,21.10
2018-05-21T09:35:30.763Z,21.20
2018-05-21T09:37:59.061Z,21.20
2018-05-21T09:40:28.087Z,21.40
2018-05-21T09:42:56.436Z,21.40
2018-05-21T09:45:25.475Z,21.60
2018-05-21T09:47:53.780Z,21.60
2018-05-21T09:50:22.076Z,21.60
2018-05-21T09:52:51.163Z,21.50
2018-05-21T09:55:19.538Z,21.50
2018-05-21T09:57:48.635Z,21.70
2018-05-21T10:00:18.427Z,21.60
2018-05-21T10:02:46.728Z,21.60
2018-05-21T10:05:15.801Z,21.70
2018-05-21T10:07:44.067Z,21.70
2018-05-21T10:10:12.356Z,21.80
2018-05-21T10:12:40.626Z,21.80
2018-05-21T10:15:08.897Z,21.90
2018-05-21T10:17:37.171Z,21.80
2018-05-21T10:20:05.464Z,21.90
2018-05-21T10:22:33.775Z,21.90
2018-05-21T10:25:02.911Z,21.80
2018-05-21T10:27:31.192Z,21.80
2018-05-21T10:29:59.476Z,21.90
2018-05-21T10:32:27.763Z,21.80
2018-05-21T10:34:56.013Z,21.90
2018-05-21T10:37:24.357Z,21.90
2018-05-21T10:39:52.548Z,22.00
2018-05-21T10:42:20.823Z,22.10
2018-05-21T10:44:49.079Z,22.10
2018-05-21T10:47:17.370Z,22.20
2018-05-21T10:49:45.662Z,22.20
2018-05-21T10:52:13.923Z,22.20
2018-05-21T10:54:42.204Z,22.20
2018-05-21T10:57:10.491Z,22.30
2018-05-21T10:59:38.776Z,22.30
2018-05-21T11:02:07.051Z,22.40
2018-05-21T11:04:35.413Z,22.40
2018-05-21T11:07:03.645Z,22.40
2018-05-21T11:09:31.899Z,22.40
2018-05-21T11:12:00.164Z,22.30
2018-05-21T11:14:28.449Z,22.40
2018-05-21T11:16:56.762Z,22.50
2018-05-21T11:19:25.103Z,22.40
2018-05-21T11:21:53.391Z,22.40
2018-05-21T11:24:22.748Z,22.50
2018-05-21T11:26:51.795Z,22.40
2018-05-21T11:29:20.052Z,22.40
2018-05-21T11:31:48.427Z,22.50
2018-05-21T11:34:17.423Z,22.70
2018-05-21T11:36:45.695Z,22.70
2018-05-21T11:39:13.972Z,22.80
2018-05-21T11:41:42.229Z,22.80
2018-05-21T11:44:10.521Z,22.80
2018-05-21T11:46:38.800Z,22.80
2018-05-21T11:49:07.074Z,22.80
2018-05-21T11:51:35.353Z,22.90
2018-05-21T11:54:03.633Z,22.90
2018-05-21T11:56:31.972Z,23.00
2018-05-21T11:59:01.050Z,22.80
2018-05-21T12:01:29.440Z,22.80
2018-05-21T12:03:58.557Z,22.80
2018-05-21T12:06:26.808Z,22.80
2018-05-21T12:08:55.116Z,22.90
2018-05-21T12:11:23.416Z,23.00
2018-05-21T12:13:51.786Z,23.10
2018-05-21T12:16:20.124Z,23.20
2018-05-21T12:18:48.401Z,23.30
2018-05-21T12:21:16.695Z,23.30
2018-05-21T12:23:44.991Z,23.30
2018-05-21T12:26:13.375Z,23.40
2018-05-21T12:28:41.741Z,23.50
2018-05-21T12:31:10.771Z,23.40
2018-05-21T12:33:39.048Z,23.40
2018-05-21T12:36:08.163Z,23.40
2018-05-21T12:38:37.206Z,23.40
2018-05-21T12:41:05.508Z,23.40
2018-05-21T12:43:33.804Z,23.40
2018-05-21T12:46:02.071Z,23.40
2018-05-21T12:48:30.438Z,23.40
2018-05-21T12:50:59.471Z,23.50
2018-05-21T12:53:27.789Z,23.50
2018-05-21T12:55:56.059Z,23.60
2018-05-21T12:58:24.360Z,23.60
2018-05-21T13:00:52.724Z,23.70
2018-05-21T13:03:21.763Z,23.60
2018-05-21T13:05:50.807Z,23.60
2018-05-21T13:08:19.072Z,23.60
2018-05-21T13:10:47.312Z,23.70
2018-05-21T13:13:15.659Z,23.70
2018-05-21T13:15:43.903Z,23.70
2018-05-21T13:18:12.292Z,23.90
2018-05-21T13:20:40.556Z,23.90
2018-05-21T13:23:08.855Z,24.00
2018-05-21T13:25:37.929Z,23.90
2018-05-21T13:28:06.191Z,23.90
2018-05-21T13:30:34.497Z,24.00
2018-05-21T13:33:02.768Z,24.00
2018-05-21T13:35:31.047Z,24.00
2018-05-21T13:37:59.319Z,24.10
2018-05-21T13:40:27.590Z,24.20
2018-05-21T13:42:55.975Z,24.10
2018-05-21T13:45:24.258Z,24.20
2018-05-21T13:47:52.534Z,24.30
2018-05-21T13:50:20.840Z,24.30
2018-05-21T13:52:49.229Z,24.20
2018-05-21T13:55:17.540Z,24.20
2018-05-21T13:57:45.825Z,24.30
2018-05-21T14:00:14.087Z,24.30
2018-05-21T14:02:42.380Z,24.30
2018-05-21T14:05:10.650Z,24.30
2018-05-21T14:07:38.957Z,24.20
2018-05-21T14:10:07.227Z,24.20
2018-05-21T14:12:35.557Z,24.20
2018-05-21T14:15:03.771Z,24.20
2018-05-21T14:17:32.091Z,24.20
2018-05-21T14:20:01.135Z,24.20
2018-05-21T14:22:29.444Z,24.10
2018-05-21T14:24:58.480Z,24.20
2018-05-21T14:27:26.757Z,24.20
2018-05-21T14:29:55.060Z,24.30
2018-05-21T14:32:24.863Z,24.20
2018-05-21T14:34:53.140Z,24.30
2018-05-21T14:37:21.431Z,24.30
2018-05-21T14:39:49.690Z,24.30
2018-05-21T14:42:18.008Z,24.30
2018-05-21T14:44:46.295Z,24.30
2018-05-21T14:47:14.547Z,24.30
2018-05-21T14:49:42.815Z,24.30
2018-05-21T14:52:11.187Z,24.40
2018-05-21T14:54:39.926Z,24.50
2018-05-21T14:57:08.992Z,24.70
2018-05-21T14:59:37.252Z,24.80
2018-05-21T15:02:05.602Z,24.90
2018-05-21T15:04:33.790Z,25.00
2018-05-21T15:07:02.051Z,25.10
2018-05-21T15:09:30.321Z,25.40
2018-05-21T15:11:58.581Z,25.60
2018-05-21T15:14:26.864Z,25.90
2018-05-21T15:16:55.131Z,26.30
2018-05-21T15:19:23.602Z,26.80
2018-05-21T15:21:51.942Z,27.30
2018-05-21T15:24:20.334Z,28.10
2018-05-21T15:26:48.796Z,29.00
2018-05-21T15:29:17.081Z,29.80
2018-05-21T15:31:45.353Z,30.10
2018-05-21T15:34:13.603Z,30.30
2018-05-21T15:36:41.916Z,30.60
2018-05-21T15:39:10.271Z,31.10
2018-05-21T15:41:38.557Z,31.60
2018-05-21T15:44:06.922Z,32.10
2018-05-21T15:46:35.215Z,32.50
2018-05-21T15:49:03.637Z,32.80
2018-05-21T15:51:31.915Z,33.20
2018-05-21T15:54:00.253Z,34.00
2018-05-21T15:56:28.536Z,34.30
2018-05-21T15:58:58.328Z,35.40
2018-05-21T16:01:26.594Z,35.30
2018-05-21T16:03:54.866Z,36.30
2018-05-21T16:06:23.256Z,36.40
2018-05-21T16:08:51.631Z,36.70
2018-05-21T16:11:19.899Z,36.80
2018-05-21T16:13:48.287Z,36.90
2018-05-21T16:16:16.701Z,36.40
2018-05-21T16:18:44.976Z,36.20
2018-05-21T16:21:13.224Z,36.20
2018-05-21T16:23:41.507Z,36.20
2018-05-21T16:26:10.596Z,36.00
2018-05-21T16:28:38.872Z,36.00
2018-05-21T16:31:07.257Z,35.70
2018-05-21T16:33:35.547Z,35.90
2018-05-21T16:36:03.904Z,36.40
2018-05-21T16:38:33.018Z,36.60
2018-05-21T16:41:01.281Z,36.50
2018-05-21T16:43:29.652Z,36.30
2018-05-21T16:45:59.459Z,35.90
2018-05-21T16:48:27.715Z,35.90
2018-05-21T16:50:56.024Z,36.30
2018-05-21T16:53:24.300Z,36.80
2018-05-21T16:55:54.481Z,37.10
2018-05-21T16:58:22.748Z,37.10
2018-05-21T17:00:51.019Z,37.30
2018-05-21T17:03:19.309Z,36.50
2018-05-21T17:05:47.615Z,36.50
2018-05-21T17:08:15.861Z,36.30
2018-05-21T17:10:44.143Z,35.90
2018-05-21T17:13:12.455Z,36.00
2018-05-21T17:15:40.744Z,35.80
2018-05-21T17:18:09.816Z,35.30
2018-05-21T17:20:39.727Z,35.10
2018-05-21T17:23:09.245Z,35.00
2018-05-21T17:25:37.635Z,34.90
2018-05-21T17:28:05.867Z,34.70
2018-05-21T17:30:34.115Z,34.80
2018-05-21T17:33:02.416Z,34.90
2018-05-21T17:35:30.747Z,34.60
2018-05-21T17:37:59.095Z,34.10
2018-05-21T17:40:27.471Z,33.40
2018-05-21T17:42:55.732Z,33.00
2018-05-21T17:45:23.991Z,32.50
2018-05-21T17:47:52.307Z,31.40
2018-05-21T17:50:20.588Z,30.30
2018-05-21T17:52:48.960Z,29.30
2018-05-21T17:55:17.247Z,28.40
2018-05-21T17:57:46.333Z,27.10
2018-05-21T18:00:14.614Z,27.10
2018-05-21T18:02:42.895Z,26.40
2018-05-21T18:05:11.961Z,25.50
2018-05-21T18:07:40.269Z,25.40
2018-05-21T18:10:09.308Z,24.90
2018-05-21T18:12:37.579Z,24.80
2018-05-21T18:15:06.797Z,24.30
2018-05-21T18:17:35.118Z,24.30
2018-05-21T18:20:03.355Z,24.20
2018-05-21T18:22:31.666Z,24.00
2018-05-21T18:24:59.930Z,23.80
2018-05-21T18:27:28.696Z,23.60
2018-05-21T18:29:56.991Z,23.50
2018-05-21T18:32:25.260Z,23.40
2018-05-21T18:34:54.389Z,23.10
2018-05-21T18:37:24.170Z,22.90
2018-05-21T18:39:52.443Z,22.90
2018-05-21T18:42:20.774Z,22.70
2018-05-21T18:44:49.130Z,22.70
2018-05-21T18:47:17.388Z,22.60
2018-05-21T18:49:45.767Z,22.40
2018-05-21T18:52:16.490Z,22.10
2018-05-21T18:54:44.731Z,22.10
2018-05-21T18:57:13.068Z,22.00
2018-05-21T18:59:41.310Z,21.90
2018-05-21T19:02:09.609Z,21.80
2018-05-21T19:04:37.896Z,21.70
2018-05-21T19:07:06.176Z,21.50
2018-05-21T19:09:34.435Z,21.40
2018-05-21T19:12:02.929Z,21.30
2018-05-21T19:14:31.187Z,21.20
2018-05-21T19:16:59.464Z,21.10
2018-05-21T19:19:27.762Z,21.00
2018-05-21T19:21:56.819Z,20.80
2018-05-21T19:24:25.083Z,20.70
2018-05-21T19:26:53.390Z,20.70
2018-05-21T19:29:22.494Z,20.50
2018-05-21T19:31:50.752Z,20.40
2018-05-21T19:34:19.136Z,20.40
2018-05-21T19:36:47.468Z,20.30
2018-05-21T19:39:15.736Z,20.20
2018-05-21T19:41:44.093Z,20.10
2018-05-21T19:44:13.171Z,19.90
2018-05-21T19:46:41.535Z,19.80
2018-05-21T19:49:09.803Z,19.80
2018-05-21T19:51:38.076Z,19.70
2018-05-21T19:54:06.356Z,19.60
2018-05-21T19:56:34.628Z,19.60
2018-05-21T19:59:02.915Z,19.50
2018-05-21T20:01:31.208Z,19.40
2018-05-21T20:03:59.494Z,19.30
2018-05-21T20:06:27.752Z,19.20
2018-05-21T20:08:56.843Z,19.00
2018-05-21T20:11:25.128Z,19.00
2018-05-21T20:13:53.400Z,19.00
2018-05-21T20:16:21.692Z,18.90
2018-05-21T20:18:50.945Z,18.70
2018-05-21T20:21:19.259Z,18.60
2018-05-21T20:23:47.526Z,18.60
2018-05-21T20:26:15.822Z,18.60
2018-05-21T20:28:44.100Z,18.40
2018-05-21T20:31:12.464Z,18.40
2018-05-21T20:33:40.771Z,18.30
2018-05-21T20:36:09.103Z,18.20
2018-05-21T20:38:37.409Z,18.10
2018-05-21T20:41:06.468Z,18.10
2018-05-21T20:43:34.749Z,18.00
2018-05-21T20:46:03.057Z,18.00
2018-05-21T20:48:32.120Z,17.90
2018-05-21T20:51:00.393Z,17.90
2018-05-21T20:53:28.695Z,17.90
2018-05-21T20:55:56.988Z,17.90
2018-05-21T20:58:25.300Z,17.80
2018-05-21T21:00:53.638Z,17.70
2018-05-21T21:03:21.927Z,17.70
2018-05-21T21:05:50.256Z,17.60
2018-05-21T21:08:18.535Z,17.60
2018-05-21T21:10:46.796Z,17.60
2018-05-21T21:13:15.067Z,17.50
2018-05-21T21:15:43.392Z,17.50
2018-05-21T21:18:11.721Z,17.50
2018-05-21T21:20:40.018Z,17.40
2018-05-21T21:23:09.241Z,17.30
2018-05-21T21:25:38.304Z,17.30
2018-05-21T21:28:06.711Z,17.20
2018-05-21T21:30:35.021Z,17.20
2018-05-21T21:33:03.300Z,17.10
2018-05-21T21:35:31.597Z,17.10
2018-05-21T21:37:59.915Z,17.10
2018-05-21T21:40:28.196Z,17.00
2018-05-21T21:42:57.297Z,17.00
2018-05-21T21:45:25.635Z,17.00
2018-05-21T21:47:53.957Z,16.90
2018-05-21T21:50:23.049Z,16.80
2018-05-21T21:52:52.255Z,16.70
2018-05-21T21:55:20.589Z,16.70
2018-05-21T21:57:48.967Z,16.70
2018-05-21T22:00:17.301Z,16.60
2018-05-21T22:02:45.671Z,16.60
2018-05-21T22:05:14.102Z,16.60
2018-05-21T22:07:43.321Z,16.50
2018-05-21T22:10:11.610Z,16.40
2018-05-21T22:12:40.033Z,16.50
2018-05-21T22:15:08.359Z,16.40
2018-05-21T22:17:37.599Z,16.40
2018-05-21T22:20:05.955Z,16.30
2018-05-21T22:22:34.244Z,16.30
2018-05-21T22:25:03.392Z,16.30
2018-05-21T22:27:31.691Z,16.20
2018-05-21T22:30:00.281Z,16.20
2018-05-21T22:32:28.700Z,16.20
2018-05-21T22:34:57.035Z,16.20
2018-05-21T22:37:26.168Z,16.10
2018-05-21T22:39:54.452Z,16.00
2018-05-21T22:42:23.084Z,16.10
2018-05-21T22:44:51.437Z,16.10
2018-05-21T22:47:19.794Z,16.00
2018-05-21T22:49:48.485Z,16.00
2018-05-21T22:52:16.782Z,16.00
2018-05-21T22:54:45.111Z,15.90
2018-05-21T22:57:14.279Z,15.80
2018-05-21T22:59:42.600Z,15.80
2018-05-21T23:02:10.943Z,15.80
2018-05-21T23:04:39.256Z,15.80
2018-05-21T23:07:07.648Z,15.70
2018-05-21T23:09:36.790Z,15.70
2018-05-21T23:12:05.185Z,15.60
2018-05-21T23:14:33.594Z,15.70
2018-05-21T23:17:02.648Z,15.60
2018-05-21T23:19:30.962Z,15.60
2018-05-21T23:21:59.274Z,15.60
2018-05-21T23:24:27.777Z,15.60
2018-05-21T23:26:56.835Z,15.60
2018-05-21T23:29:25.188Z,15.50
2018-05-21T23:31:53.541Z,15.50
2018-05-21T23:34:21.928Z,15.50
2018-05-21T23:36:50.975Z,15.40
2018-05-21T23:39:19.318Z,15.40
2018-05-21T23:41:47.620Z,15.40
2018-05-21T23:44:15.900Z,15.40
2018-05-21T23:46:44.209Z,15.40
2018-05-21T23:49:13.280Z,15.30
2018-05-21T23:51:41.629Z,15.20
2018-05-21T23:54:10.126Z,15.30
2018-05-21T23:56:38.508Z,15.30
2018-05-21T23:59:06.817Z,15.20
